^^
WesterhopeWX Station Historical Data
 
Daily Summary for February 18, 2018 Units:  Metric    English   Both
Daily Weekly Monthly Yearly Custom
  Current: High: Low: Average:
Temperature: 2.5 °C 2.8 °C 1.7 °C 2.2 °C
Dew Point: 0.6 °C 0.9 °C -0.1 °C 0.4 °C
Humidity: 87% 89% 86% 88%
Wind Speed: 0.0km/h 3.2km/h 0.0km/h 0.9km/h
Wind Gust: 0.0km/h 4.8km/h - -
WindCalm - - South
Pressure: 1018.2 hPa 1018.8 hPa 1017.8 hPa -
Precipitation: 0.0 mm      
Historical Graphs
 
 
Tabular Data for February 18, 2018
Time Temperature Dew Point Pressure Wind Wind Speed Wind Gust Humidity Rainfall Rate (Hourly) solar
00:03 2.3 °C 0.5 °C 1018.2 hPa Calm     88% 0.0 mm 0.0 W/m2
00:08 2.3 °C 0.5 °C 1018.2 hPa Calm   3.2 km/h 88% 0.0 mm 0.0 W/m2
00:13 2.3 °C 0.5 °C 1018.2 hPa SSW 1.4 km/h 3.2 km/h 88% 0.0 mm 0.0 W/m2
00:18 2.3 °C 0.5 °C 1018.5 hPa SSW 1.4 km/h 4.8 km/h 88% 0.0 mm 0.0 W/m2
00:23 2.3 °C 0.5 °C 1018.5 hPa SSW 1.4 km/h 1.6 km/h 88% 0.0 mm 0.0 W/m2
00:29 2.3 °C 0.5 °C 1018.5 hPa SSW 1.4 km/h 3.2 km/h 88% 0.0 mm 0.0 W/m2
00:34 2.4 °C 0.6 °C 1018.5 hPa Calm   1.6 km/h 88% 0.0 mm 0.0 W/m2
00:39 2.4 °C 0.6 °C 1018.5 hPa SSW 1.4 km/h 3.2 km/h 88% 0.0 mm 0.0 W/m2
00:44 2.3 °C 0.4 °C 1018.5 hPa SSW 1.4 km/h 3.2 km/h 87% 0.0 mm 0.0 W/m2
00:49 2.2 °C 0.4 °C 1018.5 hPa Calm   1.6 km/h 88% 0.0 mm 0.0 W/m2
00:54 2.2 °C 0.3 °C 1018.5 hPa SSW 1.4 km/h 1.6 km/h 87% 0.0 mm 0.0 W/m2
01:00 2.1 °C 0.2 °C 1018.5 hPa SSW 1.4 km/h 3.2 km/h 87% 0.0 mm 0.0 W/m2
01:05 2.1 °C 0.3 °C 1018.8 hPa SSW 1.4 km/h 1.6 km/h 88% 0.0 mm 0.0 W/m2
01:10 2.0 °C 0.2 °C 1018.5 hPa SSW 1.4 km/h 1.6 km/h 88% 0.0 mm 0.0 W/m2
01:15 2.0 °C 0.2 °C 1018.5 hPa Calm     88% 0.0 mm 0.0 W/m2
01:20 1.9 °C 0.1 °C 1018.5 hPa Calm     88% 0.0 mm 0.0 W/m2
01:25 1.8 °C -0.1 °C 1018.5 hPa Calm     87% 0.0 mm 0.0 W/m2
01:30 1.7 °C -0.1 °C 1018.5 hPa SSW 1.4 km/h 1.6 km/h 88% 0.0 mm 0.0 W/m2
01:35 1.8 °C 0.2 °C 1018.8 hPa Calm   1.6 km/h 89% 0.0 mm 0.0 W/m2
01:41 1.8 °C 0.0 °C 1018.5 hPa Calm     88% 0.0 mm 0.0 W/m2
01:46 1.7 °C -0.1 °C 1018.5 hPa Calm     88% 0.0 mm 0.0 W/m2
01:51 1.8 °C 0.2 °C 1018.5 hPa SSW 3.2 km/h 3.2 km/h 89% 0.0 mm 0.0 W/m2
01:56 2.0 °C 0.4 °C 1018.5 hPa Calm   1.6 km/h 89% 0.0 mm 0.0 W/m2
02:01 2.1 °C 0.3 °C 1018.5 hPa SSW 1.4 km/h 3.2 km/h 88% 0.0 mm 0.0 W/m2
02:07 2.2 °C 0.4 °C 1018.5 hPa SSW 3.2 km/h 3.2 km/h 88% 0.0 mm 0.0 W/m2
02:12 2.2 °C 0.4 °C 1018.5 hPa SSW 1.4 km/h 1.6 km/h 88% 0.0 mm 0.0 W/m2
02:17 2.2 °C 0.4 °C 1018.2 hPa SSW 1.4 km/h 1.6 km/h 88% 0.0 mm 0.0 W/m2
02:22 2.3 °C 0.5 °C 1018.2 hPa Calm   1.6 km/h 88% 0.0 mm 0.0 W/m2
02:27 2.4 °C 0.6 °C 1018.2 hPa SSW 1.4 km/h 3.2 km/h 88% 0.0 mm 0.0 W/m2
02:32 2.3 °C 0.4 °C 1018.2 hPa Calm   3.2 km/h 87% 0.0 mm 0.0 W/m2
02:37 2.3 °C 0.4 °C 1018.2 hPa Calm     87% 0.0 mm 0.0 W/m2
02:42 2.4 °C 0.6 °C 1017.8 hPa SSW 1.4 km/h 1.6 km/h 88% 0.0 mm 0.0 W/m2
02:47 2.4 °C 0.5 °C 1017.8 hPa SSW 3.2 km/h 3.2 km/h 87% 0.0 mm 0.0 W/m2
02:53 2.3 °C 0.4 °C 1017.8 hPa South 1.4 km/h 3.2 km/h 87% 0.0 mm 0.0 W/m2
02:58 2.1 °C 0.2 °C 1017.8 hPa South 1.4 km/h 3.2 km/h 87% 0.0 mm 0.0 W/m2
03:03 1.9 °C 0.0 °C 1017.8 hPa South 3.2 km/h 3.2 km/h 87% 0.0 mm 0.0 W/m2
03:08 2.1 °C 0.3 °C 1017.8 hPa South 1.4 km/h 3.2 km/h 88% 0.0 mm 0.0 W/m2
03:13 2.3 °C 0.5 °C 1017.8 hPa South 1.4 km/h 3.2 km/h 88% 0.0 mm 0.0 W/m2
03:18 2.2 °C 0.4 °C 1017.8 hPa South 1.4 km/h 1.6 km/h 88% 0.0 mm 0.0 W/m2
03:23 2.1 °C 0.2 °C 1017.8 hPa South 1.4 km/h 3.2 km/h 87% 0.0 mm 0.0 W/m2
03:29 2.0 °C 0.1 °C 1017.8 hPa South 1.4 km/h 1.6 km/h 87% 0.0 mm 0.0 W/m2
03:34 2.0 °C 0.2 °C 1017.8 hPa Calm   1.6 km/h 88% 0.0 mm 0.0 W/m2
03:39 2.0 °C 0.2 °C 1017.8 hPa South 1.4 km/h 1.6 km/h 88% 0.0 mm 0.0 W/m2
03:44 2.1 °C 0.3 °C 1017.8 hPa South 1.4 km/h 3.2 km/h 88% 0.0 mm 0.0 W/m2
03:49 2.2 °C 0.4 °C 1017.8 hPa South 1.4 km/h 1.6 km/h 88% 0.0 mm 0.0 W/m2
03:54 2.3 °C 0.5 °C 1017.8 hPa Calm   1.6 km/h 88% 0.0 mm 0.0 W/m2
04:00 2.3 °C 0.5 °C 1017.8 hPa Calm   3.2 km/h 88% 0.0 mm 0.0 W/m2
04:05 2.4 °C 0.6 °C 1017.8 hPa South 1.4 km/h 1.6 km/h 88% 0.0 mm 0.0 W/m2
04:10 2.6 °C 0.8 °C 1017.8 hPa South 1.4 km/h 3.2 km/h 88% 0.0 mm 0.0 W/m2
04:15 2.7 °C 0.9 °C 1017.8 hPa Calm   1.6 km/h 88% 0.0 mm 0.0 W/m2
04:21 2.8 °C 0.9 °C 1017.8 hPa Calm   1.6 km/h 87% 0.0 mm 0.0 W/m2
04:26 2.8 °C 0.9 °C 1017.8 hPa Calm   1.6 km/h 87% 0.0 mm 0.0 W/m2
04:31 2.7 °C 0.8 °C 1017.8 hPa Calm   1.6 km/h 87% 0.0 mm 0.0 W/m2
04:36 2.6 °C 0.7 °C 1017.8 hPa Calm     87% 0.0 mm 0.0 W/m2
04:41 2.6 °C 0.7 °C 1017.8 hPa Calm     87% 0.0 mm 0.0 W/m2
04:46 2.5 °C 0.4 °C 1017.8 hPa Calm     86% 0.0 mm 0.0 W/m2
04:51 2.4 °C 0.5 °C 1017.8 hPa Calm     87% 0.0 mm 0.0 W/m2
04:56 2.5 °C 0.6 °C 1018.2 hPa Calm   1.6 km/h 87% 0.0 mm 0.0 W/m2
05:02 2.6 °C 0.7 °C 1018.2 hPa Calm     87% 0.0 mm 0.0 W/m2
05:07 2.6 °C 0.7 °C 1018.2 hPa Calm   1.6 km/h 87% 0.0 mm 0.0 W/m2
05:12 2.5 °C 0.6 °C 1018.2 hPa Calm     87% 0.0 mm 0.0 W/m2
Westerhope, Newcastle upon Tyne, UK
Compliments of Weather Underground - 4 mb